createdAt,value
2017-11-09T00:00:18.199Z,0.00
2017-11-09T00:01:18.184Z,0.00
2017-11-09T00:02:18.186Z,0.00
2017-11-09T00:03:18.184Z,0.00
2017-11-09T00:04:18.197Z,0.00
2017-11-09T00:05:18.177Z,0.00
2017-11-09T00:06:18.211Z,0.00
2017-11-09T00:07:18.169Z,0.00
2017-11-09T00:08:18.175Z,0.00
2017-11-09T00:09:18.174Z,0.00
2017-11-09T00:10:18.189Z,0.00
2017-11-09T00:11:18.163Z,0.00
2017-11-09T00:12:18.156Z,0.00
2017-11-09T00:13:18.178Z,0.00
2017-11-09T00:14:18.152Z,0.00
2017-11-09T00:15:18.152Z,0.00
2017-11-09T00:16:18.144Z,0.00
2017-11-09T00:17:18.140Z,0.00
2017-11-09T00:18:18.135Z,0.00
2017-11-09T00:19:18.137Z,0.00
2017-11-09T00:20:18.132Z,0.00
2017-11-09T00:21:18.134Z,0.00
2017-11-09T00:22:18.126Z,0.00
2017-11-09T00:23:18.121Z,0.00
2017-11-09T00:24:18.119Z,0.00
2017-11-09T00:25:18.111Z,0.00
2017-11-09T00:26:18.119Z,0.00
2017-11-09T00:27:18.110Z,0.00
2017-11-09T00:28:18.107Z,0.00
2017-11-09T00:29:18.105Z,0.00
2017-11-09T00:30:18.167Z,0.00
2017-11-09T00:31:18.103Z,0.00
2017-11-09T00:32:18.112Z,0.00
2017-11-09T00:33:18.088Z,0.00
2017-11-09T00:34:18.090Z,0.00
2017-11-09T00:35:18.084Z,0.00
2017-11-09T00:36:18.080Z,0.00
2017-11-09T00:37:18.084Z,0.00
2017-11-09T00:38:18.080Z,0.00
2017-11-09T00:39:18.072Z,0.00
2017-11-09T00:40:18.068Z,0.00
2017-11-09T00:41:18.070Z,0.00
2017-11-09T00:42:18.071Z,0.00
2017-11-09T00:43:18.054Z,0.00
2017-11-09T00:44:18.060Z,0.00
2017-11-09T00:45:18.051Z,0.00
2017-11-09T00:46:18.069Z,0.00
2017-11-09T00:47:18.055Z,0.00
2017-11-09T00:48:18.046Z,0.00
2017-11-09T00:49:18.044Z,0.00
2017-11-09T00:50:18.038Z,0.00
2017-11-09T00:51:18.036Z,0.00
2017-11-09T00:52:18.034Z,0.00
2017-11-09T00:53:18.034Z,0.00
2017-11-09T00:54:18.042Z,0.00
2017-11-09T00:55:18.024Z,0.00
2017-11-09T00:56:18.020Z,0.00
2017-11-09T00:57:18.018Z,0.00
2017-11-09T00:58:18.014Z,0.00
2017-11-09T00:59:18.014Z,0.00
2017-11-09T01:00:18.025Z,0.00
2017-11-09T01:01:18.007Z,0.00
2017-11-09T01:02:18.023Z,0.00
2017-11-09T01:03:18.001Z,0.00
2017-11-09T01:04:17.996Z,0.00
2017-11-09T01:05:18.004Z,0.00
2017-11-09T01:06:17.989Z,0.00
2017-11-09T01:07:17.989Z,0.00
2017-11-09T01:08:18.666Z,0.00
2017-11-09T01:09:17.982Z,0.00
2017-11-09T01:10:17.982Z,0.00
2017-11-09T01:11:17.979Z,0.00
2017-11-09T01:12:17.974Z,0.00
2017-11-09T01:13:17.970Z,0.00
2017-11-09T01:14:17.977Z,0.00
2017-11-09T01:15:17.964Z,0.00
2017-11-09T01:16:17.963Z,0.00
2017-11-09T01:17:17.958Z,0.00
2017-11-09T01:18:17.952Z,0.00
2017-11-09T01:19:17.954Z,0.00
2017-11-09T01:20:17.953Z,0.00
2017-11-09T01:21:17.950Z,0.00
2017-11-09T01:22:17.945Z,0.00
2017-11-09T01:23:17.941Z,0.00
2017-11-09T01:24:17.939Z,0.00
2017-11-09T01:25:17.939Z,0.00
2017-11-09T01:26:17.934Z,0.00
2017-11-09T01:27:17.930Z,0.00
2017-11-09T01:28:17.928Z,0.00
2017-11-09T01:29:17.925Z,0.00
2017-11-09T01:30:17.924Z,0.00
2017-11-09T01:31:17.919Z,0.00
2017-11-09T01:32:17.918Z,0.00
2017-11-09T01:33:17.918Z,0.00
2017-11-09T01:34:17.910Z,0.00
2017-11-09T01:35:17.912Z,0.00
2017-11-09T01:36:17.905Z,0.00
2017-11-09T01:37:17.903Z,0.00
2017-11-09T01:38:17.905Z,0.00
2017-11-09T01:39:17.893Z,0.00
2017-11-09T01:40:17.893Z,0.00
2017-11-09T01:41:17.890Z,0.00
2017-11-09T01:42:25.517Z,0.00
2017-11-09T01:44:12.469Z,0.00
2017-11-09T01:45:12.443Z,0.00
2017-11-09T01:46:12.434Z,0.00
2017-11-09T01:48:35.482Z,0.00
2017-11-09T01:49:43.076Z,0.00
2017-11-09T01:51:28.831Z,0.00
2017-11-09T01:52:28.809Z,0.00
2017-11-09T01:54:23.196Z,0.00
2017-11-09T01:55:23.174Z,0.00
2017-11-09T01:57:16.561Z,0.00
2017-11-09T01:58:16.539Z,0.00
2017-11-09T02:00:09.939Z,0.00
2017-11-09T02:01:09.899Z,0.00
2017-11-09T02:03:03.304Z,0.00
2017-11-09T02:04:03.270Z,0.00
2017-11-09T02:05:56.668Z,0.00
2017-11-09T02:06:56.651Z,0.00
2017-11-09T02:08:51.038Z,0.00
2017-11-09T02:09:51.023Z,0.00
2017-11-09T02:10:51.004Z,0.00
2017-11-09T02:11:51.022Z,0.00
2017-11-09T02:12:50.999Z,0.00
2017-11-09T02:13:50.993Z,0.00
2017-11-09T02:14:51.030Z,0.00
2017-11-09T02:15:50.985Z,0.00
2017-11-09T02:16:50.987Z,0.00
2017-11-09T02:17:50.986Z,0.00
2017-11-09T02:18:51.003Z,0.00
2017-11-09T02:19:50.979Z,0.00
2017-11-09T02:20:50.981Z,0.00
2017-11-09T02:21:50.966Z,0.00
2017-11-09T02:22:50.964Z,0.00
2017-11-09T02:23:50.971Z,0.00
2017-11-09T02:24:50.959Z,0.00
2017-11-09T02:25:50.966Z,0.00
2017-11-09T02:26:50.978Z,0.00
2017-11-09T02:27:50.954Z,0.00
2017-11-09T02:28:50.946Z,0.00
2017-11-09T02:29:50.965Z,0.00
2017-11-09T02:30:50.947Z,0.00
2017-11-09T02:31:50.943Z,0.00
2017-11-09T02:32:50.939Z,0.00
2017-11-09T02:33:50.936Z,0.00
2017-11-09T02:34:50.939Z,0.00
2017-11-09T02:35:50.961Z,0.00
2017-11-09T02:36:50.928Z,0.00
2017-11-09T02:37:50.920Z,0.00
2017-11-09T02:38:50.923Z,0.00
2017-11-09T02:39:50.960Z,0.00
2017-11-09T02:40:50.916Z,0.00
2017-11-09T02:41:50.910Z,0.00
2017-11-09T02:42:50.913Z,0.00
2017-11-09T02:43:50.909Z,0.00
2017-11-09T02:44:50.917Z,0.00
2017-11-09T02:45:50.906Z,0.00
2017-11-09T02:46:50.896Z,0.00
2017-11-09T02:47:50.908Z,0.00
2017-11-09T02:48:50.908Z,0.00
2017-11-09T02:49:50.898Z,0.00
2017-11-09T02:50:50.894Z,0.00
2017-11-09T02:51:50.893Z,0.00
2017-11-09T02:52:50.879Z,0.00
2017-11-09T02:53:50.882Z,0.00
2017-11-09T02:54:50.878Z,0.00
2017-11-09T02:55:50.889Z,0.00
2017-11-09T02:56:50.907Z,0.00
2017-11-09T02:57:50.871Z,0.00
2017-11-09T02:58:50.867Z,0.00
2017-11-09T02:59:50.867Z,0.00
2017-11-09T03:00:50.886Z,0.00
2017-11-09T03:01:50.871Z,0.00
2017-11-09T03:02:50.851Z,0.00
2017-11-09T03:03:50.853Z,0.00
2017-11-09T03:04:50.845Z,0.00
2017-11-09T03:05:50.880Z,0.00
2017-11-09T03:06:50.885Z,0.00
2017-11-09T03:07:50.848Z,0.00
2017-11-09T03:08:50.834Z,0.00
2017-11-09T03:09:50.843Z,0.00
2017-11-09T03:10:50.832Z,0.00
2017-11-09T03:11:50.837Z,0.00
2017-11-09T03:12:50.828Z,0.00
2017-11-09T03:13:50.822Z,0.00
2017-11-09T03:14:50.818Z,0.00
2017-11-09T03:15:50.813Z,0.00
2017-11-09T03:16:50.815Z,0.00
2017-11-09T03:17:50.809Z,0.00
2017-11-09T03:18:50.811Z,0.00
2017-11-09T03:19:50.812Z,0.00
2017-11-09T03:20:50.800Z,0.00
2017-11-09T03:21:50.827Z,0.00
2017-11-09T03:22:50.802Z,0.00
2017-11-09T03:23:50.795Z,0.00
2017-11-09T03:24:50.791Z,0.00
2017-11-09T03:25:50.808Z,0.00
2017-11-09T03:26:50.791Z,0.00
2017-11-09T03:27:50.797Z,0.00
2017-11-09T03:28:50.780Z,0.00
2017-11-09T03:29:50.777Z,0.00
2017-11-09T03:30:50.778Z,0.00
2017-11-09T03:31:50.769Z,0.00
2017-11-09T03:32:50.770Z,0.00
2017-11-09T03:33:50.764Z,0.00
2017-11-09T03:34:50.777Z,0.00
2017-11-09T03:35:50.763Z,0.00
2017-11-09T03:36:50.756Z,0.00
2017-11-09T03:37:50.759Z,0.00
2017-11-09T03:38:50.754Z,0.00
2017-11-09T03:39:50.747Z,0.00
2017-11-09T03:40:50.749Z,0.00
2017-11-09T03:41:50.745Z,0.00
2017-11-09T03:42:50.748Z,0.00
2017-11-09T03:43:50.735Z,0.00
2017-11-09T03:44:50.730Z,0.00
2017-11-09T03:45:50.731Z,0.00
2017-11-09T03:46:50.728Z,0.00
2017-11-09T03:47:50.733Z,0.00
2017-11-09T03:48:50.728Z,0.00
2017-11-09T03:49:50.724Z,0.00
2017-11-09T03:50:50.716Z,0.00
2017-11-09T03:51:50.739Z,0.00
2017-11-09T03:52:50.708Z,0.00
2017-11-09T03:53:50.706Z,0.00
2017-11-09T03:54:50.704Z,0.00
2017-11-09T03:55:50.703Z,0.00
2017-11-09T03:56:50.695Z,0.00
2017-11-09T03:57:50.694Z,0.00
2017-11-09T03:58:50.689Z,0.00
2017-11-09T03:59:50.688Z,0.00
2017-11-09T04:00:50.684Z,0.00
2017-11-09T04:01:50.680Z,0.00
2017-11-09T04:02:50.681Z,0.00
2017-11-09T04:03:50.681Z,0.00
2017-11-09T04:04:50.674Z,0.00
2017-11-09T04:05:50.676Z,0.00
2017-11-09T04:06:50.674Z,0.00
2017-11-09T04:07:50.668Z,0.00
2017-11-09T04:08:50.662Z,0.00
2017-11-09T04:09:50.660Z,0.00
2017-11-09T04:10:50.657Z,0.00
2017-11-09T04:11:50.654Z,0.00
2017-11-09T04:12:50.654Z,0.00
2017-11-09T04:13:50.648Z,0.00
2017-11-09T04:14:50.645Z,0.00
2017-11-09T04:15:50.642Z,0.00
2017-11-09T04:16:50.641Z,0.00
2017-11-09T04:17:50.638Z,0.00
2017-11-09T04:18:50.634Z,0.00
2017-11-09T04:19:50.640Z,0.00
2017-11-09T04:20:50.639Z,0.00
2017-11-09T04:21:50.628Z,0.00
2017-11-09T04:22:50.617Z,0.00
2017-11-09T04:23:50.618Z,0.00
2017-11-09T04:24:50.615Z,0.00
2017-11-09T04:25:50.614Z,0.00
2017-11-09T04:26:50.612Z,0.00
2017-11-09T04:27:50.607Z,0.00
2017-11-09T04:28:50.598Z,0.00
2017-11-09T04:29:50.614Z,0.00
2017-11-09T04:30:50.599Z,0.00
2017-11-09T04:31:50.595Z,0.00
2017-11-09T04:32:50.590Z,0.00
2017-11-09T04:33:50.593Z,0.00
2017-11-09T04:34:50.587Z,0.00
2017-11-09T04:35:50.590Z,0.00
2017-11-09T04:36:50.582Z,0.00
2017-11-09T04:37:50.576Z,0.00
2017-11-09T04:38:50.587Z,0.00
2017-11-09T04:39:50.574Z,0.00
2017-11-09T04:40:50.560Z,0.00
2017-11-09T04:41:50.560Z,0.00
2017-11-09T04:42:50.580Z,0.00
2017-11-09T04:43:50.580Z,0.00
2017-11-09T04:44:50.556Z,0.00
2017-11-09T04:45:50.551Z,0.00
2017-11-09T04:46:50.548Z,0.00
2017-11-09T04:47:50.587Z,0.00
2017-11-09T04:48:50.541Z,0.00
2017-11-09T04:49:50.542Z,0.00
2017-11-09T04:50:50.533Z,0.00
2017-11-09T04:51:50.533Z,0.00
2017-11-09T04:52:50.527Z,0.00
2017-11-09T04:53:50.526Z,0.00
2017-11-09T04:54:50.522Z,0.00
2017-11-09T04:55:50.520Z,0.00
2017-11-09T04:56:50.538Z,0.00
2017-11-09T04:57:50.519Z,0.00
2017-11-09T04:58:50.511Z,0.00
2017-11-09T04:59:50.509Z,0.00
2017-11-09T05:00:50.508Z,0.00
2017-11-09T05:01:50.505Z,0.00
2017-11-09T05:02:50.502Z,0.00
2017-11-09T05:03:50.497Z,0.00
2017-11-09T05:04:50.495Z,0.00
2017-11-09T05:05:50.495Z,0.00
2017-11-09T05:06:50.481Z,0.00
2017-11-09T05:07:50.489Z,0.00
2017-11-09T05:08:50.479Z,0.00
2017-11-09T05:09:50.479Z,0.00
2017-11-09T05:10:50.486Z,0.00
2017-11-09T05:11:50.475Z,0.00
2017-11-09T05:12:50.471Z,0.00
2017-11-09T05:13:50.475Z,0.00
2017-11-09T05:14:50.471Z,0.00
2017-11-09T05:15:50.469Z,0.00
2017-11-09T05:16:50.462Z,0.00
2017-11-09T05:17:50.494Z,0.00
2017-11-09T05:18:50.452Z,0.00
2017-11-09T05:19:50.451Z,0.00
2017-11-09T05:20:50.453Z,0.00
2017-11-09T05:21:50.445Z,0.00
2017-11-09T05:22:50.437Z,0.00
2017-11-09T05:23:50.439Z,0.00
2017-11-09T05:24:50.434Z,0.00
2017-11-09T05:25:50.428Z,0.00
2017-11-09T05:26:50.428Z,0.00
2017-11-09T05:27:50.424Z,0.00
2017-11-09T05:28:50.427Z,0.00
2017-11-09T05:29:50.430Z,0.00
2017-11-09T05:30:50.415Z,0.00
2017-11-09T05:31:50.414Z,0.00
2017-11-09T05:32:50.412Z,0.00
2017-11-09T05:33:50.416Z,0.00
2017-11-09T05:34:50.429Z,0.00
2017-11-09T05:35:50.423Z,0.00
2017-11-09T05:36:50.402Z,0.00
2017-11-09T05:37:50.400Z,0.00
2017-11-09T05:38:50.392Z,0.00
2017-11-09T05:39:50.426Z,0.00
2017-11-09T05:40:50.382Z,0.00
2017-11-09T05:41:50.381Z,0.00
2017-11-09T05:42:50.386Z,0.00
2017-11-09T05:43:50.496Z,0.00
2017-11-09T05:44:50.381Z,0.00
2017-11-09T05:45:50.369Z,0.00
2017-11-09T05:46:50.390Z,0.00
2017-11-09T05:47:50.365Z,0.00
2017-11-09T05:48:50.362Z,0.00
2017-11-09T05:49:50.357Z,0.00
2017-11-09T05:50:50.353Z,4.00
2017-11-09T05:51:50.357Z,4.00
2017-11-09T05:52:50.349Z,0.00
2017-11-09T05:53:50.345Z,4.00
2017-11-09T05:54:50.344Z,4.00
2017-11-09T05:55:50.340Z,4.00
2017-11-09T05:56:50.343Z,4.00
2017-11-09T05:57:50.333Z,4.00
2017-11-09T05:58:50.332Z,4.00
2017-11-09T05:59:50.323Z,8.00
2017-11-09T06:00:50.322Z,8.00
2017-11-09T06:01:50.320Z,8.00
2017-11-09T06:02:50.315Z,8.00
2017-11-09T06:03:50.323Z,8.00
2017-11-09T06:04:50.309Z,12.00
2017-11-09T06:05:50.306Z,12.00
2017-11-09T06:06:50.312Z,16.00
2017-11-09T06:07:50.308Z,16.00
2017-11-09T06:08:50.302Z,24.00
2017-11-09T06:09:50.293Z,24.00
2017-11-09T06:10:50.293Z,28.00
2017-11-09T06:11:50.318Z,32.00
2017-11-09T06:12:50.286Z,32.00
2017-11-09T06:13:50.285Z,32.00
2017-11-09T06:14:50.282Z,36.00
2017-11-09T06:15:50.274Z,36.00
2017-11-09T06:16:50.271Z,40.00
2017-11-09T06:17:50.271Z,40.00
2017-11-09T06:18:50.267Z,40.00
2017-11-09T06:19:50.289Z,44.00
2017-11-09T06:20:50.257Z,52.00
2017-11-09T06:21:50.283Z,52.00
2017-11-09T06:22:50.250Z,60.00
2017-11-09T06:23:50.333Z,60.00
2017-11-09T06:24:50.298Z,68.00
2017-11-09T06:25:50.248Z,68.00
2017-11-09T06:26:50.244Z,80.00
2017-11-09T06:27:50.233Z,88.00
2017-11-09T06:28:50.236Z,100.00
2017-11-09T06:29:50.232Z,108.00
2017-11-09T06:30:50.259Z,120.00
2017-11-09T06:31:50.225Z,136.00
2017-11-09T06:32:50.224Z,144.00
2017-11-09T06:33:50.219Z,140.00
2017-11-09T06:34:50.218Z,140.00
2017-11-09T06:35:50.219Z,148.00
2017-11-09T06:36:50.211Z,156.00
2017-11-09T06:37:50.209Z,160.00
2017-11-09T06:38:50.230Z,164.00
2017-11-09T06:39:50.203Z,172.00
2017-11-09T06:40:50.207Z,180.00
2017-11-09T06:41:50.203Z,184.00
2017-11-09T06:42:50.199Z,200.00
2017-11-09T06:43:50.187Z,216.00
2017-11-09T06:44:50.188Z,232.00
2017-11-09T06:45:50.187Z,248.00
2017-11-09T06:46:50.183Z,264.00
2017-11-09T06:47:50.186Z,268.00
2017-11-09T06:48:50.174Z,268.00
2017-11-09T06:49:50.169Z,268.00
2017-11-09T06:50:50.170Z,260.00
2017-11-09T06:51:50.175Z,264.00
2017-11-09T06:52:50.166Z,268.00
2017-11-09T06:53:50.160Z,264.00
2017-11-09T06:54:50.172Z,268.00
2017-11-09T06:55:50.153Z,276.00
2017-11-09T06:56:50.153Z,276.00
2017-11-09T06:57:50.156Z,280.00
2017-11-09T06:58:50.142Z,292.00
2017-11-09T06:59:50.137Z,288.00
2017-11-09T07:00:50.146Z,288.00
2017-11-09T07:01:50.137Z,300.00
2017-11-09T07:02:50.132Z,304.00
2017-11-09T07:03:50.190Z,308.00
2017-11-09T07:04:50.184Z,320.00
2017-11-09T07:05:50.127Z,336.00
2017-11-09T07:06:50.143Z,348.00
2017-11-09T07:07:50.160Z,344.00
2017-11-09T07:08:50.131Z,340.00
2017-11-09T07:09:50.113Z,332.00
2017-11-09T07:10:50.131Z,336.00
2017-11-09T07:11:50.109Z,340.00
2017-11-09T07:12:50.146Z,356.00
2017-11-09T07:13:50.105Z,372.00
2017-11-09T07:14:50.121Z,368.00
2017-11-09T07:15:50.092Z,364.00
2017-11-09T07:16:50.132Z,364.00
2017-11-09T07:17:50.098Z,352.00
2017-11-09T07:18:50.101Z,352.00
2017-11-09T07:19:50.130Z,332.00
2017-11-09T07:20:50.079Z,312.00
2017-11-09T07:21:50.246Z,308.00
2017-11-09T07:22:50.073Z,332.00
2017-11-09T07:23:50.062Z,344.00
2017-11-09T07:24:50.079Z,364.00
2017-11-09T07:25:50.060Z,396.00
2017-11-09T07:26:50.059Z,420.00
2017-11-09T07:27:50.053Z,444.00
2017-11-09T07:28:50.055Z,492.00
2017-11-09T07:29:50.063Z,544.00
2017-11-09T07:30:50.046Z,592.00
2017-11-09T07:31:50.041Z,568.00
2017-11-09T07:32:50.039Z,568.00
2017-11-09T07:33:50.060Z,556.00
2017-11-09T07:34:50.034Z,560.00
2017-11-09T07:35:50.027Z,576.00
2017-11-09T07:36:50.027Z,628.00
2017-11-09T07:37:50.031Z,668.00
2017-11-09T07:38:50.022Z,696.00
2017-11-09T07:39:50.015Z,744.00
2017-11-09T07:40:50.011Z,764.00
2017-11-09T07:41:50.019Z,796.00
2017-11-09T07:42:50.014Z,844.00
2017-11-09T07:43:50.000Z,840.00
2017-11-09T07:44:49.999Z,832.00
2017-11-09T07:45:50.000Z,832.00
2017-11-09T07:46:49.994Z,848.00
2017-11-09T07:47:49.995Z,888.00
2017-11-09T07:48:49.990Z,848.00
2017-11-09T07:49:49.987Z,876.00
2017-11-09T07:50:49.998Z,800.00
2017-11-09T07:51:49.983Z,744.00
2017-11-09T07:52:50.000Z,740.00
2017-11-09T07:53:49.994Z,740.00
2017-11-09T07:54:49.979Z,708.00
2017-11-09T07:55:49.970Z,688.00
2017-11-09T07:56:49.966Z,744.00
2017-11-09T07:57:49.964Z,800.00
2017-11-09T07:58:49.960Z,844.00
2017-11-09T07:59:49.957Z,836.00
2017-11-09T08:00:49.956Z,892.00
2017-11-09T08:01:49.955Z,912.00
2017-11-09T08:02:49.951Z,924.00
2017-11-09T08:03:49.952Z,880.00
2017-11-09T08:04:49.943Z,828.00
2017-11-09T08:05:49.938Z,852.00
2017-11-09T08:06:49.952Z,852.00
2017-11-09T08:07:49.931Z,800.00
2017-11-09T08:08:49.935Z,728.00
2017-11-09T08:09:49.948Z,736.00
2017-11-09T08:10:49.919Z,684.00
2017-11-09T08:11:49.921Z,648.00
2017-11-09T08:12:49.922Z,652.00
2017-11-09T08:13:49.926Z,652.00
2017-11-09T08:14:49.913Z,628.00
2017-11-09T08:15:49.905Z,588.00
2017-11-09T08:16:49.903Z,548.00
2017-11-09T08:17:49.905Z,528.00
2017-11-09T08:18:49.897Z,544.00
2017-11-09T08:19:49.892Z,544.00
2017-11-09T08:20:49.900Z,560.00
2017-11-09T08:21:49.884Z,600.00
2017-11-09T08:22:49.882Z,612.00
2017-11-09T08:23:49.880Z,616.00
2017-11-09T08:24:49.877Z,608.00
2017-11-09T08:25:49.875Z,616.00
2017-11-09T08:26:49.871Z,604.00
2017-11-09T08:27:49.871Z,588.00
2017-11-09T08:28:49.865Z,592.00
2017-11-09T08:29:49.863Z,624.00
2017-11-09T08:30:49.863Z,656.00
2017-11-09T08:31:49.862Z,704.00
2017-11-09T08:32:49.853Z,700.00
2017-11-09T08:33:49.865Z,704.00
2017-11-09T08:34:49.845Z,672.00
2017-11-09T08:35:49.840Z,660.00
2017-11-09T08:36:49.837Z,756.00
2017-11-09T08:37:49.845Z,792.00
2017-11-09T08:38:49.834Z,844.00
2017-11-09T08:39:49.831Z,832.00
2017-11-09T08:40:49.827Z,796.00
2017-11-09T08:41:49.824Z,792.00
2017-11-09T08:42:49.822Z,836.00
2017-11-09T08:43:49.970Z,816.00
2017-11-09T08:44:49.815Z,808.00
2017-11-09T08:45:49.809Z,848.00
2017-11-09T08:46:49.811Z,824.00
2017-11-09T08:47:49.807Z,816.00
2017-11-09T08:48:49.800Z,816.00
2017-11-09T08:49:49.802Z,792.00
2017-11-09T08:50:49.801Z,696.00
2017-11-09T08:51:49.797Z,660.00
2017-11-09T08:52:49.785Z,668.00
2017-11-09T08:53:49.787Z,648.00
2017-11-09T08:54:49.784Z,716.00
2017-11-09T08:55:49.783Z,696.00
2017-11-09T08:56:49.782Z,764.00
2017-11-09T08:57:49.776Z,668.00
2017-11-09T08:58:49.773Z,652.00
2017-11-09T08:59:49.766Z,748.00
2017-11-09T09:00:49.761Z,728.00
2017-11-09T09:01:49.765Z,792.00
2017-11-09T09:02:49.764Z,820.00
2017-11-09T09:03:49.755Z,860.00
2017-11-09T09:04:49.745Z,880.00
2017-11-09T09:05:49.750Z,944.00
2017-11-09T09:06:49.741Z,1016.00
2017-11-09T09:07:49.736Z,1040.00
2017-11-09T09:08:49.740Z,1088.00
2017-11-09T09:09:49.736Z,1148.00
2017-11-09T09:10:49.734Z,1228.00
2017-11-09T09:11:49.727Z,1208.00
2017-11-09T09:12:49.732Z,1248.00
2017-11-09T09:13:49.725Z,1280.00
2017-11-09T09:14:49.738Z,1236.00
2017-11-09T09:15:49.716Z,1204.00
2017-11-09T09:16:49.710Z,1352.00
2017-11-09T09:17:49.712Z,1392.00
2017-11-09T09:18:49.721Z,1468.00
2017-11-09T09:19:49.698Z,1360.00
2017-11-09T09:20:49.697Z,1352.00
2017-11-09T09:21:49.694Z,1444.00
2017-11-09T09:22:49.688Z,1444.00
2017-11-09T09:23:49.684Z,1576.00
2017-11-09T09:24:49.710Z,1592.00
2017-11-09T09:25:49.689Z,1748.00
2017-11-09T09:26:49.686Z,1772.00
2017-11-09T09:27:49.676Z,1788.00
2017-11-09T09:28:49.670Z,1880.00
2017-11-09T09:29:49.665Z,2000.00
2017-11-09T09:30:49.663Z,2056.00
2017-11-09T09:31:49.679Z,1844.00
2017-11-09T09:32:49.655Z,1968.00
2017-11-09T09:33:49.654Z,1884.00
2017-11-09T09:34:49.658Z,1860.00
2017-11-09T09:35:49.641Z,1752.00
2017-11-09T09:36:49.645Z,1656.00
2017-11-09T09:37:49.642Z,1564.00
2017-11-09T09:38:49.630Z,1500.00
2017-11-09T09:39:49.641Z,1608.00
2017-11-09T09:40:49.625Z,1984.00
2017-11-09T09:41:49.639Z,2080.00
2017-11-09T09:42:49.622Z,2096.00
2017-11-09T09:43:49.620Z,2068.00
2017-11-09T09:44:49.613Z,1892.00
2017-11-09T09:45:49.611Z,1980.00
2017-11-09T09:46:49.611Z,1924.00
2017-11-09T09:47:49.603Z,1760.00
2017-11-09T09:48:49.597Z,1652.00
2017-11-09T09:49:49.599Z,1756.00
2017-11-09T09:50:49.601Z,1940.00
2017-11-09T09:51:49.594Z,1976.00
2017-11-09T09:52:49.587Z,1804.00
2017-11-09T09:53:49.583Z,1900.00
2017-11-09T09:54:49.580Z,1804.00
2017-11-09T09:55:49.579Z,1508.00
2017-11-09T09:56:49.573Z,1328.00
2017-11-09T09:57:49.576Z,1332.00
2017-11-09T09:58:49.567Z,1564.00
2017-11-09T09:59:49.564Z,1692.00
2017-11-09T10:00:49.564Z,1628.00
2017-11-09T10:01:49.572Z,1688.00
2017-11-09T10:02:49.557Z,2016.00
2017-11-09T10:03:49.551Z,2124.00
2017-11-09T10:04:49.571Z,2252.00
2017-11-09T10:05:49.548Z,2140.00
2017-11-09T10:06:49.553Z,2196.00
2017-11-09T10:07:49.542Z,2560.00
2017-11-09T10:08:49.535Z,2616.00
2017-11-09T10:09:49.538Z,2376.00
2017-11-09T10:10:49.527Z,2364.00
2017-11-09T10:11:49.533Z,2368.00
2017-11-09T10:12:49.524Z,2232.00
2017-11-09T10:13:49.526Z,2104.00
2017-11-09T10:14:49.518Z,1896.00
2017-11-09T10:15:49.522Z,1928.00
2017-11-09T10:16:49.518Z,1884.00
2017-11-09T10:17:49.510Z,1852.00
2017-11-09T10:18:49.512Z,1824.00
2017-11-09T10:19:49.508Z,1840.00
2017-11-09T10:20:49.510Z,1976.00
2017-11-09T10:21:49.502Z,1900.00
2017-11-09T10:22:49.498Z,1796.00
2017-11-09T10:23:49.510Z,2004.00
2017-11-09T10:24:49.491Z,2448.00
2017-11-09T10:25:49.521Z,2604.00
2017-11-09T10:26:49.492Z,2924.00
2017-11-09T10:27:49.515Z,2660.00
2017-11-09T10:28:49.494Z,2444.00
2017-11-09T10:29:52.296Z,2292.00
2017-11-09T10:30:49.796Z,2272.00
2017-11-09T10:33:30.360Z,3732.00
2017-11-09T10:34:30.326Z,4268.00
2017-11-09T10:36:23.710Z,4660.00
2017-11-09T10:37:23.685Z,4664.00
2017-11-09T10:39:18.074Z,4608.00
2017-11-09T10:40:18.046Z,5064.00
2017-11-09T10:42:11.846Z,5796.00
2017-11-09T10:43:11.828Z,5600.00
2017-11-09T10:45:05.227Z,4240.00
2017-11-09T10:46:05.200Z,4548.00
2017-11-09T10:47:58.665Z,4664.00
2017-11-09T10:49:07.177Z,4644.00
2017-11-09T10:50:51.948Z,4060.00
2017-11-09T10:51:51.913Z,3784.00
2017-11-09T10:53:47.844Z,4024.00
2017-11-09T10:54:47.278Z,4312.00
2017-11-09T10:56:41.664Z,4032.00
2017-11-09T10:57:41.642Z,3944.00
2017-11-09T10:59:36.033Z,3472.00
2017-11-09T11:00:36.015Z,3832.00
2017-11-09T11:02:29.397Z,4092.00
2017-11-09T11:03:29.376Z,4160.00
2017-11-09T11:05:22.815Z,3668.00
2017-11-09T11:06:22.787Z,3532.00
2017-11-09T11:08:16.171Z,4776.00
2017-11-09T11:09:16.151Z,5044.00
2017-11-09T11:11:09.542Z,5640.00
2017-11-09T11:12:09.515Z,5680.00
2017-11-09T11:14:04.932Z,4760.00
2017-11-09T11:15:04.894Z,4492.00
2017-11-09T11:16:04.902Z,4376.00
2017-11-09T11:17:04.893Z,3732.00
2017-11-09T11:18:04.901Z,3324.00
2017-11-09T11:19:04.888Z,3596.00
2017-11-09T11:20:04.884Z,3812.00
2017-11-09T11:21:04.888Z,3920.00
2017-11-09T11:22:04.889Z,3512.00
2017-11-09T11:23:04.877Z,3640.00
2017-11-09T11:24:04.880Z,4220.00
2017-11-09T11:25:04.878Z,4388.00
2017-11-09T11:26:04.885Z,4212.00
2017-11-09T11:27:04.877Z,4612.00
2017-11-09T11:28:04.872Z,4640.00
2017-11-09T11:29:04.870Z,4220.00
2017-11-09T11:30:04.873Z,4180.00
2017-11-09T11:31:04.864Z,4548.00
2017-11-09T11:32:04.863Z,4864.00
2017-11-09T11:33:04.863Z,4712.00
2017-11-09T11:34:04.862Z,4288.00
2017-11-09T11:35:04.861Z,3996.00
2017-11-09T11:36:04.856Z,3864.00
2017-11-09T11:37:04.856Z,3492.00
2017-11-09T11:38:04.855Z,3424.00
2017-11-09T11:39:04.852Z,3444.00
2017-11-09T11:40:04.850Z,2944.00
2017-11-09T11:41:04.846Z,2548.00
2017-11-09T11:42:04.846Z,2588.00
2017-11-09T11:43:04.845Z,2584.00
2017-11-09T11:44:04.846Z,2320.00
2017-11-09T11:45:04.844Z,2408.00
2017-11-09T11:46:04.841Z,2528.00
2017-11-09T11:47:04.836Z,2752.00
2017-11-09T11:48:04.836Z,2400.00
2017-11-09T11:49:04.838Z,2040.00
2017-11-09T11:50:04.831Z,1840.00
2017-11-09T11:51:04.848Z,1784.00
2017-11-09T11:52:04.830Z,2012.00
2017-11-09T11:53:04.869Z,2132.00
2017-11-09T11:54:04.822Z,2012.00
2017-11-09T11:55:04.820Z,2172.00
2017-11-09T11:56:04.819Z,2260.00
2017-11-09T11:57:04.812Z,2316.00
2017-11-09T11:58:04.855Z,2376.00
2017-11-09T11:59:04.811Z,2320.00
2017-11-09T12:00:04.812Z,2088.00
2017-11-09T12:01:04.810Z,1936.00
2017-11-09T12:02:04.807Z,2160.00
2017-11-09T12:03:04.815Z,3052.00
2017-11-09T12:04:04.801Z,3420.00
2017-11-09T12:05:04.800Z,3624.00
2017-11-09T12:06:04.823Z,4116.00
2017-11-09T12:07:04.808Z,4244.00
2017-11-09T12:08:04.793Z,4196.00
2017-11-09T12:09:04.788Z,4240.00
2017-11-09T12:10:04.789Z,3996.00
2017-11-09T12:11:04.785Z,3780.00
2017-11-09T12:12:04.786Z,3608.00
2017-11-09T12:13:04.784Z,3508.00
2017-11-09T12:14:04.797Z,3456.00
2017-11-09T12:15:04.776Z,3432.00
2017-11-09T12:16:04.776Z,3568.00
2017-11-09T12:17:04.772Z,3588.00
2017-11-09T12:18:04.770Z,3360.00
2017-11-09T12:19:04.772Z,3492.00
2017-11-09T12:20:04.789Z,3864.00
2017-11-09T12:21:04.767Z,4056.00
2017-11-09T12:22:04.765Z,4240.00
2017-11-09T12:23:04.761Z,4408.00
2017-11-09T12:24:04.776Z,4308.00
2017-11-09T12:25:04.757Z,3880.00
2017-11-09T12:26:04.754Z,3784.00
2017-11-09T12:27:04.758Z,4420.00
2017-11-09T12:28:04.751Z,4520.00
2017-11-09T12:29:04.760Z,4108.00
2017-11-09T12:30:04.752Z,4032.00
2017-11-09T12:31:04.756Z,3660.00
2017-11-09T12:32:04.742Z,3116.00
2017-11-09T12:33:04.738Z,3160.00
2017-11-09T12:34:04.741Z,3568.00
2017-11-09T12:35:04.737Z,3692.00
2017-11-09T12:36:04.734Z,3520.00
2017-11-09T12:37:04.735Z,3240.00
2017-11-09T12:38:04.736Z,3192.00
2017-11-09T12:39:04.727Z,3320.00
2017-11-09T12:40:04.726Z,2900.00
2017-11-09T12:41:04.727Z,2380.00
2017-11-09T12:42:04.725Z,2328.00
2017-11-09T12:43:04.720Z,2300.00
2017-11-09T12:44:04.719Z,2148.00
2017-11-09T12:45:04.733Z,2316.00
2017-11-09T12:46:04.717Z,2320.00
2017-11-09T12:47:04.716Z,2620.00
2017-11-09T12:48:04.709Z,2796.00
2017-11-09T12:49:04.714Z,2996.00
2017-11-09T12:50:04.710Z,3028.00
2017-11-09T12:51:04.708Z,2788.00
2017-11-09T12:52:04.705Z,2360.00
2017-11-09T12:53:04.700Z,2432.00
2017-11-09T12:54:04.710Z,2604.00
2017-11-09T12:55:04.698Z,2880.00
2017-11-09T12:56:04.699Z,3180.00
2017-11-09T12:57:04.695Z,3044.00
2017-11-09T12:58:04.698Z,2796.00
2017-11-09T12:59:04.687Z,2612.00
2017-11-09T13:00:04.696Z,2712.00
2017-11-09T13:01:04.692Z,3072.00
2017-11-09T13:02:04.685Z,3056.00
2017-11-09T13:03:13.315Z,4816.00
2017-11-09T13:04:59.086Z,4512.00
2017-11-09T13:05:59.052Z,3948.00
2017-11-09T13:07:52.644Z,3608.00
2017-11-09T13:08:52.632Z,3976.00